Time;durP1;ratioP1;P1;durP2;ratioP2;P2;SDS_P1;SDS_P2;PMS_P1;PMS_P2;Temp;Humidity;BMP_temperature;BMP_pressure;BME280_temperature;BME280_humidity;BME280_pressure;Samples;Min_cycle;Max_cycle;Signal;HPM_P1;HPM_P2
2023/09/28 00:00:38;;;;;;;8.50;7.60;;;;;;;;;;5076197;28;20416;-89
2023/09/28 00:03:04;;;;;;;6.73;6.00;;;;;;;;;;5058010;28;20421;-89
2023/09/28 00:05:30;;;;;;;10.70;6.30;;;;;;;;;;5058038;28;20461;-88
2023/09/28 00:07:56;;;;;;;7.43;6.33;;;;;;;;;;5058429;28;20576;-88
2023/09/28 00:10:23;;;;;;;9.20;7.40;;;;;;;;;;5057655;28;20844;-91
2023/09/28 00:12:50;;;;;;;9.10;7.80;;;;;;;;;;5057087;28;20414;-91
2023/09/28 00:15:16;;;;;;;7.23;6.20;;;;;;;;;;5055072;28;20441;-92
2023/09/28 00:17:43;;;;;;;8.50;6.40;;;;;;;;;;5048568;28;20441;-88
2023/09/28 00:20:20;;;;;;;7.83;6.97;;;;;;;;;;5058493;28;20930;-91
2023/09/28 00:22:56;;;;;;;8.60;7.80;;;;;;;;;;5058401;28;20419;-89
2023/09/28 00:25:23;;;;;;;9.57;7.23;;;;;;;;;;5058231;28;20439;-90
2023/09/28 00:27:55;;;;;;;7.87;7.10;;;;;;;;;;5058886;28;20817;-92
2023/09/28 00:30:25;;;;;;;9.07;8.13;;;;;;;;;;5057870;28;21002;-93
2023/09/28 00:32:52;;;;;;;9.83;8.47;;;;;;;;;;5057774;28;20422;-91
2023/09/28 00:35:18;;;;;;;12.57;8.13;;;;;;;;;;5057933;28;20791;-90
2023/09/28 00:37:44;;;;;;;8.73;7.10;;;;;;;;;;5058192;28;20414;-91
2023/09/28 00:40:31;;;;;;;8.00;7.23;;;;;;;;;;5057560;28;20878;-91
2023/09/28 00:42:57;;;;;;;7.53;6.70;;;;;;;;;;5057727;28;20409;-91
2023/09/28 00:45:24;;;;;;;8.23;7.40;;;;;;;;;;5057782;28;20413;-88
2023/09/28 00:47:51;;;;;;;9.10;8.20;;;;;;;;;;5057387;28;20417;-89
2023/09/28 00:50:18;;;;;;;8.93;8.03;;;;;;;;;;5057407;28;20473;-87
2023/09/28 00:52:46;;;;;;;8.40;7.60;;;;;;;;;;5057653;28;20448;-89
2023/09/28 00:55:12;;;;;;;10.37;9.27;;;;;;;;;;5056995;28;20425;-86
2023/09/28 00:57:44;;;;;;;12.70;8.30;;;;;;;;;;5056987;28;20465;-89
2023/09/28 01:00:26;;;;;;;10.37;7.90;;;;;;;;;;5075363;28;20412;-90
2023/09/28 01:02:53;;;;;;;8.00;7.30;;;;;;;;;;5057594;28;20793;-87
2023/09/28 01:05:26;;;;;;;8.83;7.53;;;;;;;;;;5056593;28;20916;-88
2023/09/28 01:07:52;;;;;;;10.07;8.70;;;;;;;;;;5042582;28;20506;-87
2023/09/28 01:10:23;;;;;;;8.03;7.23;;;;;;;;;;5034233;28;20474;-88
2023/09/28 01:12:49;;;;;;;8.30;7.43;;;;;;;;;;5034685;28;20411;-89
2023/09/28 01:15:15;;;;;;;8.53;7.77;;;;;;;;;;5033486;28;20464;-89
2023/09/28 01:17:42;;;;;;;9.03;8.13;;;;;;;;;;5033549;28;20935;-87
2023/09/28 01:20:19;;;;;;;7.53;6.83;;;;;;;;;;5033457;28;20420;-87
2023/09/28 01:22:49;;;;;;;7.13;6.43;;;;;;;;;;5033663;28;20425;-87
2023/09/28 01:25:15;;;;;;;7.17;6.50;;;;;;;;;;5034074;28;20480;-86
2023/09/28 01:27:46;;;;;;;8.70;7.47;;;;;;;;;;5032991;28;20463;-86
2023/09/28 01:30:12;;;;;;;9.40;7.50;;;;;;;;;;5034197;28;20475;-87
2023/09/28 01:32:38;;;;;;;10.90;8.67;;;;;;;;;;5034257;28;20406;-87
2023/09/28 01:35:05;;;;;;;7.47;6.77;;;;;;;;;;5032805;28;20415;-88
2023/09/28 01:37:38;;;;;;;9.00;8.10;;;;;;;;;;5034058;28;20425;-89
2023/09/28 01:40:05;;;;;;;8.37;7.37;;;;;;;;;;5032595;28;20416;-86
2023/09/28 01:42:31;;;;;;;9.60;8.60;;;;;;;;;;5034332;28;20440;-93
2023/09/28 01:44:57;;;;;;;9.00;8.10;;;;;;;;;;5033886;28;20898;-90
2023/09/28 01:47:23;;;;;;;9.70;8.83;;;;;;;;;;5033210;28;20447;-88
2023/09/28 01:49:49;;;;;;;8.90;8.10;;;;;;;;;;5032895;28;20547;-90
2023/09/28 01:52:15;;;;;;;11.03;8.67;;;;;;;;;;5033092;28;20421;-90
2023/09/28 01:54:40;;;;;;;10.10;8.60;;;;;;;;;;5032168;28;20766;-87
2023/09/28 01:57:06;;;;;;;11.00;8.90;;;;;;;;;;5033503;28;20411;-90
2023/09/28 01:59:32;;;;;;;10.10;8.77;;;;;;;;;;5033890;28;20424;-90
2023/09/28 02:01:58;;;;;;;12.40;10.37;;;;;;;;;;5032589;28;20414;-89
2023/09/28 02:04:25;;;;;;;10.23;9.20;;;;;;;;;;5034499;28;20501;-90
2023/09/28 02:06:51;;;;;;;10.83;9.73;;;;;;;;;;5037726;28;20928;-88
2023/09/28 02:09:17;;;;;;;12.30;9.00;;;;;;;;;;5073655;28;20568;-87
2023/09/28 02:11:44;;;;;;;10.03;9.13;;;;;;;;;;5055976;28;20411;-88
2023/09/28 02:14:13;;;;;;;11.33;8.50;;;;;;;;;;5055717;28;20430;-87
2023/09/28 02:16:40;;;;;;;10.93;9.83;;;;;;;;;;5055540;28;20411;-88
2023/09/28 02:19:05;;;;;;;9.80;8.90;;;;;;;;;;5073211;28;20418;-87
2023/09/28 02:21:32;;;;;;;10.87;9.80;;;;;;;;;;5055315;28;20412;-88
2023/09/28 02:23:58;;;;;;;9.93;8.93;;;;;;;;;;5055087;28;20174;-89
2023/09/28 02:26:24;;;;;;;9.43;8.53;;;;;;;;;;5055483;28;20462;-89
2023/09/28 02:28:50;;;;;;;13.07;11.20;;;;;;;;;;5055803;28;20459;-90
2023/09/28 02:31:16;;;;;;;11.10;9.90;;;;;;;;;;5050727;28;20458;-89
2023/09/28 02:33:43;;;;;;;12.23;8.90;;;;;;;;;;5036116;28;20441;-89
2023/09/28 02:36:09;;;;;;;11.70;10.50;;;;;;;;;;5051868;28;20456;-87
2023/09/28 02:38:35;;;;;;;10.30;9.17;;;;;;;;;;5051913;28;20785;-87
2023/09/28 02:41:01;;;;;;;10.27;9.20;;;;;;;;;;5058656;28;20429;-88
2023/09/28 02:43:27;;;;;;;12.57;9.60;;;;;;;;;;5050851;28;21178;-91
2023/09/28 02:45:53;;;;;;;11.83;10.57;;;;;;;;;;5054004;28;20510;-90
2023/09/28 02:48:19;;;;;;;10.13;8.73;;;;;;;;;;5069386;28;20428;-87
2023/09/28 02:50:45;;;;;;;13.30;10.07;;;;;;;;;;5054456;28;20812;-87
2023/09/28 02:53:11;;;;;;;12.50;9.53;;;;;;;;;;5068708;28;20428;-88
2023/09/28 02:55:37;;;;;;;12.63;11.37;;;;;;;;;;5070246;28;20432;-87
2023/09/28 02:58:04;;;;;;;10.40;9.30;;;;;;;;;;5071952;28;20431;-88
2023/09/28 03:00:32;;;;;;;10.13;9.10;;;;;;;;;;5056684;28;20423;-87
2023/09/28 03:03:00;;;;;;;11.27;10.10;;;;;;;;;;5052786;28;20456;-87
2023/09/28 03:05:28;;;;;;;11.13;10.13;;;;;;;;;;5038565;28;20801;-88
2023/09/28 03:07:54;;;;;;;10.03;8.73;;;;;;;;;;5058805;28;20978;-88
2023/09/28 03:10:20;;;;;;;13.77;9.50;;;;;;;;;;5078677;28;20472;-90
2023/09/28 03:12:47;;;;;;;10.23;9.20;;;;;;;;;;5054989;28;20461;-87
2023/09/28 03:15:16;;;;;;;12.63;11.30;;;;;;;;;;5058364;28;20429;-88
2023/09/28 03:17:42;;;;;;;13.33;10.20;;;;;;;;;;5075849;28;20410;-88
2023/09/28 03:20:11;;;;;;;12.97;10.70;;;;;;;;;;5076481;28;20886;-88
2023/09/28 03:22:37;;;;;;;12.20;11.10;;;;;;;;;;5058885;28;20465;-91
2023/09/28 03:25:06;;;;;;;12.20;11.00;;;;;;;;;;5076011;28;20501;-87
2023/09/28 03:27:32;;;;;;;14.00;10.93;;;;;;;;;;5076288;28;20408;-87
2023/09/28 03:29:58;;;;;;;13.57;9.33;;;;;;;;;;5075966;28;20484;-87
2023/09/28 03:32:24;;;;;;;12.50;11.20;;;;;;;;;;5076138;28;20405;-87
2023/09/28 03:34:50;;;;;;;13.50;11.30;;;;;;;;;;5076352;28;20769;-88
2023/09/28 03:37:18;;;;;;;11.30;9.77;;;;;;;;;;5058095;28;20682;-88
2023/09/28 03:39:44;;;;;;;10.87;9.40;;;;;;;;;;5075914;28;20417;-87
2023/09/28 03:42:10;;;;;;;10.83;9.67;;;;;;;;;;5061834;28;20418;-92
2023/09/28 03:44:36;;;;;;;12.07;9.73;;;;;;;;;;5061077;28;20415;-89
2023/09/28 03:47:02;;;;;;;11.53;10.30;;;;;;;;;;5076926;28;20410;-87
2023/09/28 03:49:28;;;;;;;13.80;10.70;;;;;;;;;;5058734;28;20569;-91
2023/09/28 03:51:54;;;;;;;12.67;11.30;;;;;;;;;;5059126;28;20440;-90
2023/09/28 03:54:20;;;;;;;12.07;10.77;;;;;;;;;;5059530;28;20412;-90
2023/09/28 03:56:46;;;;;;;11.87;10.63;;;;;;;;;;5058763;28;20482;-88
2023/09/28 03:59:12;;;;;;;13.60;11.07;;;;;;;;;;5075647;28;20418;-88
2023/09/28 04:01:44;;;;;;;12.50;11.27;;;;;;;;;;5057679;28;20408;-88
2023/09/28 04:04:10;;;;;;;14.27;12.77;;;;;;;;;;5075486;28;20266;-88
2023/09/28 04:06:36;;;;;;;16.63;12.40;;;;;;;;;;5075303;28;20408;-88
2023/09/28 04:09:02;;;;;;;14.63;11.07;;;;;;;;;;5056999;28;20464;-87
2023/09/28 04:11:28;;;;;;;13.90;12.00;;;;;;;;;;5057294;28;20428;-87
2023/09/28 04:13:54;;;;;;;14.03;10.70;;;;;;;;;;5074852;28;20500;-88
2023/09/28 04:16:20;;;;;;;14.57;11.70;;;;;;;;;;5075444;28;20469;-88
2023/09/28 04:18:46;;;;;;;13.93;11.50;;;;;;;;;;5056678;28;20419;-90
2023/09/28 04:21:12;;;;;;;12.37;11.00;;;;;;;;;;5075324;28;20413;-89
2023/09/28 04:23:38;;;;;;;17.77;13.10;;;;;;;;;;5075115;28;20454;-88
2023/09/28 04:26:05;;;;;;;13.10;11.70;;;;;;;;;;5057426;28;20417;-88
2023/09/28 04:28:32;;;;;;;13.67;12.27;;;;;;;;;;5057324;28;20424;-89
2023/09/28 04:30:58;;;;;;;14.37;12.97;;;;;;;;;;5075221;28;20419;-88
2023/09/28 04:33:24;;;;;;;16.87;14.13;;;;;;;;;;5075344;28;20421;-88
2023/09/28 04:35:50;;;;;;;13.63;11.53;;;;;;;;;;5075149;28;20408;-87
2023/09/28 04:38:16;;;;;;;16.63;13.40;;;;;;;;;;5074805;28;20498;-87
2023/09/28 04:40:43;;;;;;;14.87;13.20;;;;;;;;;;5074956;28;20491;-89
2023/09/28 04:43:09;;;;;;;14.17;12.60;;;;;;;;;;5075023;28;20921;-88
2023/09/28 04:45:35;;;;;;;16.13;14.53;;;;;;;;;;5057018;28;20409;-88
2023/09/28 04:48:01;;;;;;;15.40;13.80;;;;;;;;;;5056830;28;20415;-88
2023/09/28 04:50:26;;;;;;;12.93;11.73;;;;;;;;;;5056939;28;20467;-88
2023/09/28 04:52:54;;;;;;;15.93;13.93;;;;;;;;;;5074705;28;20509;-88
2023/09/28 04:55:20;;;;;;;16.40;13.60;;;;;;;;;;5056715;28;20515;-88
2023/09/28 04:57:46;;;;;;;14.90;12.90;;;;;;;;;;5074609;28;20439;-88
2023/09/28 05:00:16;;;;;;;15.20;13.63;;;;;;;;;;5056725;28;20472;-88
2023/09/28 05:02:42;;;;;;;14.93;12.27;;;;;;;;;;5056519;28;20989;-89
2023/09/28 05:05:08;;;;;;;15.87;13.03;;;;;;;;;;5074390;28;20423;-88
2023/09/28 05:07:34;;;;;;;15.57;12.43;;;;;;;;;;5074207;28;20484;-88
2023/09/28 05:10:00;;;;;;;15.17;13.67;;;;;;;;;;5073798;28;20478;-88
2023/09/28 05:12:26;;;;;;;14.70;12.43;;;;;;;;;;5056338;28;20429;-88
2023/09/28 05:14:52;;;;;;;15.10;12.90;;;;;;;;;;5074109;28;20410;-88
2023/09/28 05:17:18;;;;;;;13.23;11.83;;;;;;;;;;5056332;28;20723;-88
2023/09/28 05:19:44;;;;;;;18.00;12.63;;;;;;;;;;5074024;28;20412;-88
2023/09/28 05:22:10;;;;;;;15.00;12.40;;;;;;;;;;5074183;28;20218;-88
2023/09/28 05:24:36;;;;;;;14.60;13.10;;;;;;;;;;5055981;28;20409;-89
2023/09/28 05:27:02;;;;;;;15.57;12.07;;;;;;;;;;5074052;28;20406;-88
2023/09/28 05:29:30;;;;;;;14.83;13.33;;;;;;;;;;5055711;28;21100;-90
2023/09/28 05:31:55;;;;;;;14.60;12.63;;;;;;;;;;5055995;28;20911;-87
2023/09/28 05:34:21;;;;;;;14.37;12.73;;;;;;;;;;5073800;28;20428;-88
2023/09/28 05:36:47;;;;;;;17.43;13.80;;;;;;;;;;5055951;28;20905;-87
2023/09/28 05:39:13;;;;;;;13.40;12.17;;;;;;;;;;5073380;28;20174;-88
2023/09/28 05:41:39;;;;;;;19.13;13.63;;;;;;;;;;5073515;28;20824;-88
2023/09/28 05:44:07;;;;;;;16.50;12.50;;;;;;;;;;5055842;28;20460;-87
2023/09/28 05:46:33;;;;;;;15.40;12.63;;;;;;;;;;5055711;28;20484;-88
2023/09/28 05:48:59;;;;;;;16.17;12.40;;;;;;;;;;5055353;28;20474;-88
2023/09/28 05:51:25;;;;;;;17.60;14.83;;;;;;;;;;5055339;28;20427;-87
2023/09/28 05:53:53;;;;;;;14.70;11.83;;;;;;;;;;5055166;28;20432;-87
2023/09/28 05:56:19;;;;;;;14.20;12.70;;;;;;;;;;5073467;28;20440;-89
2023/09/28 05:58:44;;;;;;;15.70;12.57;;;;;;;;;;5055518;28;20424;-88
2023/09/28 06:01:17;;;;;;;14.30;12.63;;;;;;;;;;5055463;28;20787;-88
2023/09/28 06:03:43;;;;;;;16.60;14.90;;;;;;;;;;5054454;28;20810;-87
2023/09/28 06:06:15;;;;;;;15.93;13.47;;;;;;;;;;5073348;28;20190;-87
2023/09/28 06:08:41;;;;;;;13.83;12.50;;;;;;;;;;5054617;28;20477;-88
2023/09/28 06:11:11;;;;;;;16.23;14.03;;;;;;;;;;5073193;28;20419;-88
2023/09/28 06:13:37;;;;;;;17.73;13.27;;;;;;;;;;5055188;28;20464;-87
2023/09/28 06:16:03;;;;;;;17.17;13.77;;;;;;;;;;5073176;28;20412;-87
2023/09/28 06:18:28;;;;;;;14.83;12.60;;;;;;;;;;5055135;28;20184;-87
2023/09/28 06:20:54;;;;;;;15.00;12.60;;;;;;;;;;5073026;28;20414;-87
2023/09/28 06:23:20;;;;;;;18.57;13.40;;;;;;;;;;5072705;28;20424;-87
2023/09/28 06:25:47;;;;;;;15.30;13.00;;;;;;;;;;5073042;28;20499;-88
2023/09/28 06:28:13;;;;;;;14.33;12.53;;;;;;;;;;5072918;28;20414;-88
2023/09/28 06:30:39;;;;;;;16.23;13.87;;;;;;;;;;5054858;28;20478;-87
2023/09/28 06:33:05;;;;;;;13.03;11.83;;;;;;;;;;5055120;28;20418;-87
2023/09/28 06:35:31;;;;;;;15.53;11.93;;;;;;;;;;5054901;28;20178;-87
2023/09/28 06:37:58;;;;;;;13.37;12.07;;;;;;;;;;5054516;28;20446;-87
2023/09/28 06:40:24;;;;;;;13.80;11.77;;;;;;;;;;5054909;28;20231;-87
2023/09/28 06:42:50;;;;;;;12.10;10.87;;;;;;;;;;5075662;28;20923;-88
2023/09/28 06:45:16;;;;;;;12.83;11.03;;;;;;;;;;5076842;28;20494;-87
2023/09/28 06:47:42;;;;;;;11.83;10.77;;;;;;;;;;5076794;28;20213;-87
2023/09/28 06:50:09;;;;;;;12.47;11.27;;;;;;;;;;5058725;28;20479;-88
2023/09/28 06:52:35;;;;;;;12.17;10.40;;;;;;;;;;5058770;28;20461;-87
2023/09/28 06:55:03;;;;;;;11.10;10.00;;;;;;;;;;5058277;28;20422;-88
2023/09/28 06:57:29;;;;;;;10.30;9.37;;;;;;;;;;5076750;28;20442;-88
2023/09/28 06:59:55;;;;;;;11.17;10.17;;;;;;;;;;5076751;28;20922;-88
2023/09/28 07:02:21;;;;;;;11.03;10.00;;;;;;;;;;5058813;28;20251;-88
2023/09/28 07:04:47;;;;;;;10.27;8.33;;;;;;;;;;5058665;28;20272;-89
2023/09/28 07:07:16;;;;;;;11.23;9.40;;;;;;;;;;5076390;28;20477;-87
2023/09/28 07:09:42;;;;;;;9.37;8.47;;;;;;;;;;5076124;28;20250;-88
2023/09/28 07:12:10;;;;;;;11.03;9.43;;;;;;;;;;5058496;28;20416;-88
2023/09/28 07:14:36;;;;;;;9.93;8.90;;;;;;;;;;5058408;28;20505;-88
2023/09/28 07:17:03;;;;;;;9.00;8.20;;;;;;;;;;5058429;28;20979;-89
2023/09/28 07:19:29;;;;;;;10.50;8.53;;;;;;;;;;5076328;28;20903;-88
2023/09/28 07:21:55;;;;;;;9.40;8.00;;;;;;;;;;5058427;28;20509;-89
2023/09/28 07:24:21;;;;;;;8.00;6.83;;;;;;;;;;5075947;28;20256;-88
2023/09/28 07:26:47;;;;;;;7.20;5.77;;;;;;;;;;5058380;28;20427;-87
2023/09/28 07:29:13;;;;;;;10.77;6.87;;;;;;;;;;5058202;28;20470;-87
2023/09/28 07:31:39;;;;;;;7.27;6.57;;;;;;;;;;5076103;28;20760;-87
2023/09/28 07:34:05;;;;;;;7.87;7.17;;;;;;;;;;5075975;28;20415;-87
2023/09/28 07:36:31;;;;;;;7.30;6.67;;;;;;;;;;5058171;28;20422;-88
2023/09/28 07:38:57;;;;;;;9.60;6.80;;;;;;;;;;5057780;28;20473;-87
2023/09/28 07:41:23;;;;;;;9.20;7.40;;;;;;;;;;5075954;28;20921;-89
2023/09/28 07:43:49;;;;;;;7.53;6.07;;;;;;;;;;5057965;28;20503;-88
2023/09/28 07:46:15;;;;;;;7.80;7.10;;;;;;;;;;5057880;28;20762;-88
2023/09/28 07:48:47;;;;;;;6.50;5.90;;;;;;;;;;5075587;28;20410;-89
2023/09/28 07:51:13;;;;;;;7.50;5.57;;;;;;;;;;5075648;28;20630;-88
2023/09/28 07:53:39;;;;;;;7.40;6.57;;;;;;;;;;5074102;28;20570;-89
2023/09/28 07:56:08;;;;;;;9.40;5.67;;;;;;;;;;5064766;28;20184;-88
2023/09/28 07:58:34;;;;;;;5.97;5.37;;;;;;;;;;5057745;28;20414;-88
2023/09/28 08:01:01;;;;;;;7.00;6.30;;;;;;;;;;5075591;28;20422;-88
2023/09/28 08:03:27;;;;;;;6.40;5.53;;;;;;;;;;5057539;28;20453;-88
2023/09/28 08:05:54;;;;;;;6.77;5.50;;;;;;;;;;5075567;28;20465;-88
2023/09/28 08:08:20;;;;;;;7.37;5.00;;;;;;;;;;5074930;28;20225;-88
2023/09/28 08:10:47;;;;;;;6.70;6.03;;;;;;;;;;5075156;28;20823;-88
2023/09/28 08:13:16;;;;;;;7.50;5.90;;;;;;;;;;5075297;28;20421;-87
2023/09/28 08:15:44;;;;;;;9.43;6.57;;;;;;;;;;5075088;28;20525;-88
2023/09/28 08:18:10;;;;;;;7.70;6.70;;;;;;;;;;5075165;28;20419;-88
2023/09/28 08:20:36;;;;;;;7.00;5.40;;;;;;;;;;5057287;28;20792;-88
2023/09/28 08:23:04;;;;;;;8.43;6.37;;;;;;;;;;5074766;28;20183;-88
2023/09/28 08:25:30;;;;;;;7.40;6.70;;;;;;;;;;5057211;28;20441;-90
2023/09/28 08:27:56;;;;;;;7.30;5.80;;;;;;;;;;5057114;28;20828;-88
2023/09/28 08:30:22;;;;;;;5.83;5.33;;;;;;;;;;5075063;28;20236;-89
2023/09/28 08:32:48;;;;;;;6.17;5.10;;;;;;;;;;5057010;28;20437;-88
2023/09/28 08:35:15;;;;;;;6.23;5.03;;;;;;;;;;5057038;28;20975;-88
2023/09/28 08:37:41;;;;;;;5.70;4.13;;;;;;;;;;5056723;28;20411;-89
2023/09/28 08:40:08;;;;;;;4.17;3.87;;;;;;;;;;5057028;28;20522;-90
2023/09/28 08:42:35;;;;;;;5.67;4.30;;;;;;;;;;5074778;28;20175;-89
2023/09/28 08:45:02;;;;;;;4.13;3.73;;;;;;;;;;5056880;28;20419;-87
2023/09/28 08:47:32;;;;;;;4.00;3.70;;;;;;;;;;5074734;28;20549;-90
2023/09/28 08:49:58;;;;;;;5.93;4.10;;;;;;;;;;5074644;28;20466;-90
2023/09/28 08:52:27;;;;;;;6.20;4.83;;;;;;;;;;5056272;28;20455;-89
2023/09/28 08:54:53;;;;;;;4.40;3.70;;;;;;;;;;5056708;28;20415;-90
2023/09/28 08:57:19;;;;;;;5.70;3.87;;;;;;;;;;5075001;28;20451;-92
2023/09/28 08:59:46;;;;;;;4.50;3.80;;;;;;;;;;5056775;28;21058;-90
2023/09/28 09:02:14;;;;;;;4.80;3.83;;;;;;;;;;5074511;28;20926;-90
2023/09/28 09:04:42;;;;;;;3.70;3.40;;;;;;;;;;5073775;28;20419;-90
2023/09/28 09:07:08;;;;;;;4.40;3.70;;;;;;;;;;5056059;28;20473;-90
2023/09/28 09:09:37;;;;;;;7.07;4.97;;;;;;;;;;5055997;28;20557;-89
2023/09/28 09:12:09;;;;;;;4.10;3.77;;;;;;;;;;5074182;28;20413;-90
2023/09/28 09:14:35;;;;;;;5.10;4.37;;;;;;;;;;5074144;28;20407;-90
2023/09/28 09:17:02;;;;;;;4.20;3.83;;;;;;;;;;5056296;28;20769;-90
2023/09/28 09:19:32;;;;;;;4.40;3.87;;;;;;;;;;5056157;28;20427;-90
2023/09/28 09:21:58;;;;;;;4.20;3.53;;;;;;;;;;5056165;28;20418;-91
2023/09/28 09:24:24;;;;;;;5.30;3.40;;;;;;;;;;5073567;28;20415;-90
2023/09/28 09:26:56;;;;;;;4.00;3.70;;;;;;;;;;5056130;28;20423;-90
2023/09/28 09:29:22;;;;;;;6.30;4.03;;;;;;;;;;5056234;28;20458;-91
2023/09/28 09:31:49;;;;;;;3.83;3.13;;;;;;;;;;5073905;28;20769;-92
2023/09/28 09:34:18;;;;;;;4.13;3.60;;;;;;;;;;5056073;28;20395;-91
2023/09/28 09:36:57;;;;;;;4.20;3.80;;;;;;;;;;5073740;28;20411;-89
2023/09/28 09:39:24;;;;;;;3.80;3.50;;;;;;;;;;5055739;28;20418;-93
2023/09/28 09:41:51;;;;;;;4.93;3.60;;;;;;;;;;5055904;28;20422;-91
2023/09/28 09:44:18;;;;;;;3.70;3.40;;;;;;;;;;5055313;28;20454;-91
2023/09/28 09:46:44;;;;;;;5.93;3.53;;;;;;;;;;5055735;28;20407;-91
2023/09/28 09:49:10;;;;;;;5.97;2.97;;;;;;;;;;5055563;28;20529;-88
2023/09/28 09:51:38;;;;;;;5.13;2.80;;;;;;;;;;5073160;28;20751;-90
2023/09/28 09:54:05;;;;;;;5.13;2.97;;;;;;;;;;5073001;28;20468;-89
2023/09/28 09:56:33;;;;;;;3.83;2.57;;;;;;;;;;5055516;28;20423;-89
2023/09/28 09:59:01;;;;;;;6.10;3.47;;;;;;;;;;5055494;28;20447;-88
2023/09/28 10:01:28;;;;;;;4.07;2.30;;;;;;;;;;5073403;28;20912;-90
2023/09/28 10:03:55;;;;;;;3.37;2.00;;;;;;;;;;5055532;28;20509;-90
2023/09/28 10:06:22;;;;;;;3.47;2.57;;;;;;;;;;5073321;28;20419;-88
2023/09/28 10:08:49;;;;;;;5.03;2.67;;;;;;;;;;5032844;28;20530;-90
2023/09/28 10:11:16;;;;;;;3.13;1.97;;;;;;;;;;5033223;28;20424;-87
2023/09/28 10:13:42;;;;;;;3.53;2.80;;;;;;;;;;5032053;28;20470;-90
2023/09/28 10:16:12;;;;;;;3.10;2.77;;;;;;;;;;5031280;28;20937;-89
2023/09/28 10:18:40;;;;;;;4.20;2.90;;;;;;;;;;5033369;28;20449;-89
2023/09/28 10:21:07;;;;;;;3.80;3.10;;;;;;;;;;5032100;28;20417;-88
2023/09/28 10:23:32;;;;;;;4.03;2.87;;;;;;;;;;5032741;28;20416;-89
2023/09/28 10:25:59;;;;;;;4.70;2.80;;;;;;;;;;5033077;28;20811;-91
2023/09/28 10:28:25;;;;;;;4.20;2.63;;;;;;;;;;5033221;28;20180;-89
2023/09/28 10:31:10;;;;;;;4.37;2.67;;;;;;;;;;5033130;28;20472;-90
2023/09/28 10:33:56;;;;;;;2.97;2.17;;;;;;;;;;5031868;28;20424;-90
2023/09/28 10:36:22;;;;;;;4.70;2.80;;;;;;;;;;5031822;28;20427;-88
2023/09/28 10:39:05;;;;;;;3.73;3.43;;;;;;;;;;5031408;28;20417;-90
2023/09/28 10:41:31;;;;;;;3.70;2.57;;;;;;;;;;5031900;28;20638;-91
2023/09/28 10:43:57;;;;;;;3.37;2.70;;;;;;;;;;5033060;28;20417;-89
2023/09/28 10:46:23;;;;;;;4.37;2.47;;;;;;;;;;5033447;28;20308;-91
2023/09/28 10:48:51;;;;;;;3.67;2.17;;;;;;;;;;5033283;28;20535;-92
2023/09/28 10:51:20;;;;;;;3.93;2.40;;;;;;;;;;5033209;28;20799;-91
2023/09/28 10:53:47;;;;;;;2.73;2.30;;;;;;;;;;5031580;28;20440;-91
2023/09/28 10:56:13;;;;;;;4.50;2.47;;;;;;;;;;5033043;28;20468;-90
2023/09/28 10:58:42;;;;;;;3.40;2.53;;;;;;;;;;5031461;28;20516;-90
2023/09/28 11:01:08;;;;;;;4.67;3.20;;;;;;;;;;5031556;28;20519;-91
2023/09/28 11:03:35;;;;;;;4.40;3.40;;;;;;;;;;5031765;28;20785;-90
2023/09/28 11:06:02;;;;;;;3.80;2.60;;;;;;;;;;5032758;28;20804;-88
2023/09/28 11:08:28;;;;;;;4.80;2.13;;;;;;;;;;5031027;28;20961;-90
2023/09/28 11:10:58;;;;;;;3.10;2.60;;;;;;;;;;5031540;28;20476;-91
2023/09/28 11:13:24;;;;;;;2.73;2.07;;;;;;;;;;5032962;28;20496;-92
2023/09/28 11:15:50;;;;;;;2.73;1.90;;;;;;;;;;5033994;28;20460;-90
2023/09/28 11:18:18;;;;;;;4.43;3.00;;;;;;;;;;5034689;28;20228;-91
2023/09/28 11:20:44;;;;;;;3.50;3.17;;;;;;;;;;5034592;28;20403;-89
2023/09/28 11:23:13;;;;;;;3.30;2.50;;;;;;;;;;5033238;28;20413;-86
2023/09/28 11:25:40;;;;;;;3.20;2.90;;;;;;;;;;5033813;28;20171;-91
2023/09/28 11:28:07;;;;;;;4.97;2.73;;;;;;;;;;5035589;28;20851;-91
2023/09/28 11:30:33;;;;;;;4.63;2.77;;;;;;;;;;5037348;28;20484;-92
2023/09/28 11:33:02;;;;;;;4.33;3.10;;;;;;;;;;5037485;28;20504;-88
2023/09/28 11:35:31;;;;;;;5.30;2.37;;;;;;;;;;5036688;28;20409;-88
2023/09/28 11:38:00;;;;;;;3.17;2.60;;;;;;;;;;5037101;28;20417;-91
2023/09/28 11:40:26;;;;;;;4.10;2.10;;;;;;;;;;5037291;28;20405;-90
2023/09/28 11:42:53;;;;;;;3.63;2.60;;;;;;;;;;5037090;28;20432;-90
2023/09/28 11:45:25;;;;;;;3.73;2.50;;;;;;;;;;5037251;28;20452;-90
2023/09/28 11:47:51;;;;;;;3.20;2.43;;;;;;;;;;5037017;28;20405;-89
2023/09/28 11:50:18;;;;;;;3.47;2.53;;;;;;;;;;5039196;28;20504;-91
2023/09/28 11:52:43;;;;;;;4.60;2.70;;;;;;;;;;5041232;28;20565;-92
2023/09/28 11:55:13;;;;;;;3.87;2.67;;;;;;;;;;5043019;28;20419;-93
2023/09/28 11:57:39;;;;;;;4.80;2.67;;;;;;;;;;5043831;28;20163;-94
2023/09/28 12:00:07;;;;;;;5.63;2.73;;;;;;;;;;5040606;28;20770;-92
2023/09/28 12:02:33;;;;;;;5.50;2.10;;;;;;;;;;5044145;28;20189;-93
2023/09/28 12:04:59;;;;;;;4.10;2.23;;;;;;;;;;5042703;28;20421;-92
2023/09/28 12:07:25;;;;;;;3.53;2.17;;;;;;;;;;5063087;28;20223;-93
2023/09/28 12:09:50;;;;;;;3.47;2.17;;;;;;;;;;5086300;28;20200;-93
2023/09/28 12:12:17;;;;;;;4.90;2.30;;;;;;;;;;5087114;28;20621;-91
2023/09/28 12:14:43;;;;;;;4.93;2.53;;;;;;;;;;5193767;22;20234;-94
2023/09/28 12:17:09;;;;;;;3.77;3.10;;;;;;;;;;5056844;28;20421;-93
2023/09/28 12:19:35;;;;;;;5.87;2.27;;;;;;;;;;5053875;28;20471;-93
2023/09/28 12:22:03;;;;;;;3.70;2.07;;;;;;;;;;5050496;28;20182;-94
2023/09/28 12:24:29;;;;;;;3.50;2.00;;;;;;;;;;5054312;28;20417;-93
2023/09/28 12:26:55;;;;;;;5.10;2.50;;;;;;;;;;5054843;28;20397;-81
2023/09/28 12:29:21;;;;;;;4.03;1.97;;;;;;;;;;5051423;28;20181;-94
2023/09/28 12:31:47;;;;;;;3.60;2.17;;;;;;;;;;5052209;28;20174;-94
2023/09/28 12:34:14;;;;;;;3.23;2.30;;;;;;;;;;5046396;28;20174;-94
2023/09/28 12:36:41;;;;;;;3.60;2.40;;;;;;;;;;5048807;28;20409;-86
2023/09/28 12:39:10;;;;;;;4.07;1.90;;;;;;;;;;5034903;28;20436;-94
2023/09/28 12:41:36;;;;;;;3.63;1.93;;;;;;;;;;5036118;28;20417;-92
2023/09/28 12:44:02;;;;;;;4.63;2.23;;;;;;;;;;5036188;28;20886;-94
2023/09/28 12:46:28;;;;;;;4.27;2.63;;;;;;;;;;5036032;28;20174;-94
2023/09/28 12:48:55;;;;;;;4.20;2.17;;;;;;;;;;5035885;28;20456;-92
2023/09/28 12:51:21;;;;;;;5.37;2.50;;;;;;;;;;5035755;28;20654;-91
2023/09/28 12:53:47;;;;;;;5.37;2.77;;;;;;;;;;5035375;28;20405;-92
2023/09/28 12:56:13;;;;;;;4.47;2.63;;;;;;;;;;5036405;28;20184;-93
2023/09/28 12:58:39;;;;;;;2.70;2.17;;;;;;;;;;5035643;28;20496;-93
2023/09/28 13:01:06;;;;;;;4.13;2.37;;;;;;;;;;5035675;28;20415;-92
2023/09/28 13:03:34;;;;;;;8.60;2.37;;;;;;;;;;5036397;28;20401;-83
2023/09/28 13:06:01;;;;;;;2.53;1.63;;;;;;;;;;5035945;28;20744;-90
2023/09/28 13:08:28;;;;;;;8.63;2.40;;;;;;;;;;5039489;28;20412;-89
2023/09/28 13:10:55;;;;;;;5.30;2.23;;;;;;;;;;5054173;28;20982;-88
2023/09/28 13:13:20;;;;;;;4.50;2.57;;;;;;;;;;5054296;28;20951;-89
2023/09/28 13:15:46;;;;;;;3.67;2.17;;;;;;;;;;5050917;28;20566;-89
2023/09/28 13:18:14;;;;;;;7.20;2.43;;;;;;;;;;5034313;28;20257;-90
2023/09/28 13:20:41;;;;;;;3.70;1.90;;;;;;;;;;5033498;28;20177;-88
2023/09/28 13:23:09;;;;;;;7.63;2.70;;;;;;;;;;5033562;28;20413;-90
2023/09/28 13:25:35;;;;;;;5.97;3.47;;;;;;;;;;5033802;28;20416;-89
2023/09/28 13:28:01;;;;;;;4.23;2.50;;;;;;;;;;5034188;28;20475;-88
2023/09/28 13:30:29;;;;;;;5.07;2.47;;;;;;;;;;5016376;28;20222;-89
2023/09/28 13:32:56;;;;;;;4.83;2.30;;;;;;;;;;5033956;28;20409;-91
2023/09/28 13:35:23;;;;;;;5.00;2.60;;;;;;;;;;5034125;28;20417;-90
2023/09/28 13:37:49;;;;;;;7.53;2.77;;;;;;;;;;5033738;28;20409;-90
2023/09/28 13:40:34;;;;;;;5.97;2.43;;;;;;;;;;5034050;28;20412;-89
2023/09/28 13:43:01;;;;;;;5.23;2.37;;;;;;;;;;5016240;28;20421;-88
2023/09/28 13:45:27;;;;;;;3.87;2.30;;;;;;;;;;5033968;28;20849;-88
2023/09/28 13:47:56;;;;;;;5.10;2.70;;;;;;;;;;5033789;28;20524;-88
2023/09/28 13:50:27;;;;;;;6.13;3.20;;;;;;;;;;5033543;28;20464;-89
2023/09/28 13:52:53;;;;;;;4.50;2.50;;;;;;;;;;5033233;28;20408;-88
2023/09/28 13:55:20;;;;;;;5.00;2.03;;;;;;;;;;5033682;28;20417;-88
2023/09/28 13:57:47;;;;;;;4.63;2.23;;;;;;;;;;5015865;28;20654;-88
2023/09/28 14:00:16;;;;;;;4.00;3.03;;;;;;;;;;5033407;28;20409;-86
2023/09/28 14:02:42;;;;;;;4.70;3.30;;;;;;;;;;5015693;28;20771;-88
2023/09/28 14:05:08;;;;;;;3.83;2.57;;;;;;;;;;5033332;28;20416;-89
2023/09/28 14:07:34;;;;;;;4.50;2.70;;;;;;;;;;5032887;28;20428;-88
2023/09/28 14:10:00;;;;;;;6.80;2.67;;;;;;;;;;5032984;28;20473;-83
2023/09/28 14:12:26;;;;;;;4.50;2.57;;;;;;;;;;5021555;28;20195;-87
2023/09/28 14:14:52;;;;;;;4.03;2.80;;;;;;;;;;5032842;28;20558;-88
2023/09/28 14:17:18;;;;;;;4.40;2.00;;;;;;;;;;5032943;28;20181;-88
2023/09/28 14:19:44;;;;;;;3.80;2.00;;;;;;;;;;5032932;28;20893;-87
2023/09/28 14:22:10;;;;;;;4.20;3.00;;;;;;;;;;5032499;28;20178;-87
2023/09/28 14:24:36;;;;;;;4.43;2.73;;;;;;;;;;5033077;28;20170;-86
2023/09/28 14:27:02;;;;;;;6.00;3.20;;;;;;;;;;5032839;28;20260;-88
2023/09/28 14:29:28;;;;;;;5.63;3.00;;;;;;;;;;5032812;28;21031;-88
2023/09/28 14:31:54;;;;;;;3.53;2.00;;;;;;;;;;5032821;28;20918;-88